Time;durP1;ratioP1;P1;durP2;ratioP2;P2;SDS_P1;SDS_P2;PMS_P1;PMS_P2;Temp;Humidity;BMP_temperature;BMP_pressure;BME280_temperature;BME280_humidity;BME280_pressure;Samples;Min_cycle;Max_cycle;Signal;HPM_P1;HPM_P2
2021/06/22 00:02:17;;;;;;;;;;;26.70;57.00;;;;;;5025766;28;19939;-65
2021/06/22 00:04:43;;;;;;;;;;;26.60;56.90;;;;;;5019903;28;19917;-65
2021/06/22 00:07:08;;;;;;;;;;;26.60;56.90;;;;;;5024563;28;19924;-65
2021/06/22 00:09:34;;;;;;;;;;;26.60;56.90;;;;;;5024606;28;19921;-69
2021/06/22 00:11:59;;;;;;;;;;;26.60;56.90;;;;;;5051342;22;19975;-68
2021/06/22 00:14:24;;;;;;;;;;;26.70;56.90;;;;;;5038012;28;19925;-67
2021/06/22 00:16:50;;;;;;;;;;;26.60;56.90;;;;;;5028398;28;20402;-67
2021/06/22 00:19:15;;;;;;;;;;;26.60;56.90;;;;;;5048903;28;20316;-67
2021/06/22 00:21:41;;;;;;;;;;;26.50;56.90;;;;;;5019403;28;19920;-68
2021/06/22 00:24:06;;;;;;;;;;;26.60;57.10;;;;;;5020279;28;19913;-68
2021/06/22 00:26:32;;;;;;;;;;;26.50;56.90;;;;;;5017878;28;19914;-67
2021/06/22 00:28:57;;;;;;;;;;;26.50;56.90;;;;;;5021439;28;19921;-67
2021/06/22 00:31:23;;;;;;;;;;;26.50;56.80;;;;;;5021620;28;20138;-67
2021/06/22 00:33:48;;;;;;;;;;;26.50;56.60;;;;;;5042165;28;20469;-68
2021/06/22 00:36:14;;;;;;;;;;;26.50;56.50;;;;;;5027589;28;19921;-68
2021/06/22 00:38:39;;;;;;;;;;;26.50;56.50;;;;;;5042040;28;19917;-68
2021/06/22 00:41:05;;;;;;;;;;;26.40;56.30;;;;;;5015264;28;20284;-68
2021/06/22 00:43:30;;;;;;;;;;;26.40;56.10;;;;;;5025768;28;20442;-67
2021/06/22 00:45:56;;;;;;;;;;;26.40;55.70;;;;;;5022458;28;19917;-68
2021/06/22 00:48:21;;;;;;;;;;;26.40;55.80;;;;;;5027878;28;20342;-68
2021/06/22 00:50:47;;;;;;;;;;;26.40;55.90;;;;;;5029228;28;19959;-68
2021/06/22 00:53:12;;;;;;;;;;;26.40;55.60;;;;;;5028790;28;19924;-67
2021/06/22 00:55:38;;;;;;;;;;;26.40;55.50;;;;;;5019095;28;20367;-68
2021/06/22 00:58:04;;;;;;;;;;;26.30;55.50;;;;;;5018995;28;20003;-68
2021/06/22 01:00:30;;;;;;;;;;;26.30;55.80;;;;;;5019916;28;20511;-67
2021/06/22 01:02:56;;;;;;;;;;;26.30;55.60;;;;;;5022590;28;20011;-67
2021/06/22 01:05:21;;;;;;;;;;;26.30;55.70;;;;;;5018143;28;20346;-67
2021/06/22 01:07:47;;;;;;;;;;;26.40;55.70;;;;;;5017983;28;19917;-67
2021/06/22 01:10:13;;;;;;;;;;;26.40;55.70;;;;;;5024577;28;20291;-66
2021/06/22 01:12:38;;;;;;;;;;;26.30;55.40;;;;;;5041897;28;19925;-66
2021/06/22 01:15:10;;;;;;;;;;;26.30;55.70;;;;;;5021495;28;19928;-65
2021/06/22 01:17:36;;;;;;;;;;;26.30;55.80;;;;;;5021919;28;20007;-65
2021/06/22 01:20:01;;;;;;;;;;;26.30;55.40;;;;;;5023899;28;19949;-66
2021/06/22 01:22:27;;;;;;;;;;;26.30;55.40;;;;;;5021643;28;19917;-67
2021/06/22 01:24:53;;;;;;;;;;;26.20;55.40;;;;;;5024525;28;20320;-66
2021/06/22 01:27:19;;;;;;;;;;;26.20;55.30;;;;;;5019145;28;19952;-66
2021/06/22 01:29:44;;;;;;;;;;;26.30;55.60;;;;;;5023013;28;19921;-66
2021/06/22 01:32:09;;;;;;;;;;;26.20;55.80;;;;;;5022644;28;19920;-65
2021/06/22 01:34:35;;;;;;;;;;;26.20;55.80;;;;;;5017365;28;19949;-65
2021/06/22 01:37:01;;;;;;;;;;;26.20;55.90;;;;;;5024198;28;20327;-67
2021/06/22 01:39:26;;;;;;;;;;;26.30;55.90;;;;;;5014153;28;19917;-66
2021/06/22 01:41:52;;;;;;;;;;;26.20;55.70;;;;;;5023393;28;20482;-67
2021/06/22 01:44:17;;;;;;;;;;;26.20;55.50;;;;;;5018602;28;19917;-65
2021/06/22 01:46:42;;;;;;;;;;;26.20;55.50;;;;;;5019965;28;19921;-65
2021/06/22 01:49:08;;;;;;;;;;;26.20;55.70;;;;;;5016480;28;19917;-66
2021/06/22 01:51:33;;;;;;;;;;;26.20;55.70;;;;;;5022086;28;19921;-66
2021/06/22 01:53:59;;;;;;;;;;;26.20;55.80;;;;;;5022350;28;19913;-66
2021/06/22 01:56:26;;;;;;;;;;;26.20;55.60;;;;;;5014796;28;19913;-66
2021/06/22 01:58:51;;;;;;;;;;;26.20;55.60;;;;;;5020344;28;19924;-65
2021/06/22 02:01:17;;;;;;;;;;;26.20;55.70;;;;;;5026597;28;19913;-66
2021/06/22 02:03:42;;;;;;;;;;;26.20;55.80;;;;;;5027312;28;19932;-65
2021/06/22 02:06:08;;;;;;;;;;;26.10;55.70;;;;;;5021685;28;19913;-66
2021/06/22 02:08:33;;;;;;;;;;;26.10;55.60;;;;;;5026109;28;19924;-66
2021/06/22 02:10:59;;;;;;;;;;;26.10;55.80;;;;;;5017676;28;19917;-64
2021/06/22 02:13:26;;;;;;;;;;;26.20;55.90;;;;;;5018452;28;19920;-65
2021/06/22 02:15:51;;;;;;;;;;;26.10;55.90;;;;;;5023256;28;20305;-65
2021/06/22 02:18:17;;;;;;;;;;;26.10;55.90;;;;;;5039394;28;20410;-64
2021/06/22 02:20:42;;;;;;;;;;;26.10;55.80;;;;;;5020303;28;19940;-65
2021/06/22 02:23:08;;;;;;;;;;;26.10;55.90;;;;;;5024368;28;20035;-65
2021/06/22 02:25:33;;;;;;;;;;;26.10;56.10;;;;;;5021148;28;20364;-65
2021/06/22 02:28:03;;;;;;;;;;;26.10;55.90;;;;;;5024525;28;19917;-65
2021/06/22 02:30:28;;;;;;;;;;;26.10;56.00;;;;;;5019818;28;19972;-65
2021/06/22 02:32:54;;;;;;;;;;;26.10;56.10;;;;;;5016142;28;19924;-66
2021/06/22 02:35:19;;;;;;;;;;;26.10;56.20;;;;;;5018687;28;19921;-66
2021/06/22 02:37:44;;;;;;;;;;;26.00;56.20;;;;;;5023037;28;20350;-66
2021/06/22 02:40:10;;;;;;;;;;;26.10;56.10;;;;;;5016958;28;19996;-65
2021/06/22 02:42:35;;;;;;;;;;;26.00;56.00;;;;;;5022650;28;19913;-65
2021/06/22 02:45:01;;;;;;;;;;;26.10;56.00;;;;;;5023529;28;20445;-64
2021/06/22 02:47:26;;;;;;;;;;;26.10;55.90;;;;;;5022273;28;19924;-65
2021/06/22 02:49:52;;;;;;;;;;;26.10;56.00;;;;;;5014675;28;19963;-65
2021/06/22 02:52:17;;;;;;;;;;;26.10;55.80;;;;;;5024868;28;20418;-66
2021/06/22 02:54:43;;;;;;;;;;;26.10;55.90;;;;;;5016462;28;19910;-65
2021/06/22 02:57:08;;;;;;;;;;;26.00;55.90;;;;;;5023221;28;20299;-66
2021/06/22 02:59:34;;;;;;;;;;;26.00;56.00;;;;;;5017099;28;19955;-65
2021/06/22 03:01:59;;;;;;;;;;;25.90;56.00;;;;;;5005291;28;19921;-65
2021/06/22 03:04:25;;;;;;;;;;;25.90;56.00;;;;;;5014649;28;19987;-65
2021/06/22 03:06:50;;;;;;;;;;;25.90;56.30;;;;;;5018730;28;20367;-67
2021/06/22 03:09:16;;;;;;;;;;;25.90;56.40;;;;;;5014885;28;19921;-66
2021/06/22 03:11:41;;;;;;;;;;;25.90;56.40;;;;;;5018993;28;19917;-66
2021/06/22 03:14:07;;;;;;;;;;;25.90;56.20;;;;;;5024616;28;19914;-66
2021/06/22 03:16:32;;;;;;;;;;;25.90;56.10;;;;;;5016242;28;19921;-65
2021/06/22 03:18:58;;;;;;;;;;;25.90;55.90;;;;;;5022739;28;19932;-66
2021/06/22 03:21:23;;;;;;;;;;;25.90;55.70;;;;;;5021281;28;20014;-66
2021/06/22 03:23:49;;;;;;;;;;;25.90;55.80;;;;;;5012498;28;19924;-66
2021/06/22 03:26:15;;;;;;;;;;;25.90;55.80;;;;;;5023171;28;19929;-68
2021/06/22 03:28:40;;;;;;;;;;;25.80;55.90;;;;;;5015697;28;19913;-67
2021/06/22 03:31:06;;;;;;;;;;;25.80;56.00;;;;;;5019765;28;19913;-68
2021/06/22 03:33:31;;;;;;;;;;;25.80;55.90;;;;;;5016348;28;19956;-68
2021/06/22 03:35:57;;;;;;;;;;;25.90;56.10;;;;;;5024532;28;19937;-67
2021/06/22 03:38:22;;;;;;;;;;;25.80;56.20;;;;;;5012647;28;19925;-68
2021/06/22 03:40:48;;;;;;;;;;;25.80;56.20;;;;;;5009156;28;20371;-67
2021/06/22 03:43:13;;;;;;;;;;;25.70;55.90;;;;;;5015204;28;19940;-68
2021/06/22 03:45:38;;;;;;;;;;;25.70;55.80;;;;;;5022591;28;20008;-67
2021/06/22 03:48:05;;;;;;;;;;;25.70;55.60;;;;;;5015173;28;20572;-66
2021/06/22 03:50:30;;;;;;;;;;;25.70;55.60;;;;;;5019784;28;20028;-67
2021/06/22 03:52:55;;;;;;;;;;;25.60;55.60;;;;;;5022380;28;19992;-68
2021/06/22 03:55:27;;;;;;;;;;;25.60;55.40;;;;;;5023032;28;19924;-67
2021/06/22 03:57:53;;;;;;;;;;;25.60;55.40;;;;;;5023832;28;19921;-68
2021/06/22 04:00:19;;;;;;;;;;;25.70;55.30;;;;;;5021494;28;19943;-67
2021/06/22 04:02:45;;;;;;;;;;;25.70;55.00;;;;;;5018299;28;19936;-68
2021/06/22 04:05:10;;;;;;;;;;;25.60;54.70;;;;;;5021283;28;19917;-67
2021/06/22 04:07:36;;;;;;;;;;;25.60;55.10;;;;;;5013039;28;19921;-67
2021/06/22 04:10:01;;;;;;;;;;;25.60;55.10;;;;;;5022006;28;19919;-67
2021/06/22 04:12:26;;;;;;;;;;;25.60;55.20;;;;;;5036742;28;19967;-68
2021/06/22 04:14:52;;;;;;;;;;;25.70;55.00;;;;;;5015564;28;19924;-69
2021/06/22 04:17:17;;;;;;;;;;;25.70;55.00;;;;;;5019093;28;19913;-67
2021/06/22 04:19:43;;;;;;;;;;;25.70;55.30;;;;;;5017133;28;20387;-67
2021/06/22 04:22:08;;;;;;;;;;;25.70;55.40;;;;;;5021602;28;19917;-68
2021/06/22 04:24:34;;;;;;;;;;;25.70;55.50;;;;;;5019643;28;19927;-68
2021/06/22 04:26:59;;;;;;;;;;;25.70;55.20;;;;;;5009674;28;19918;-67
2021/06/22 04:29:25;;;;;;;;;;;25.70;54.10;;;;;;5020764;28;20350;-66
2021/06/22 04:31:50;;;;;;;;;;;25.60;54.40;;;;;;5017957;28;19919;-67
2021/06/22 04:34:16;;;;;;;;;;;25.60;54.30;;;;;;5020069;28;19917;-67
2021/06/22 04:36:41;;;;;;;;;;;25.60;54.70;;;;;;5015092;28;20348;-67
2021/06/22 04:39:07;;;;;;;;;;;25.60;54.60;;;;;;5012924;28;19918;-68
2021/06/22 04:41:32;;;;;;;;;;;25.60;54.70;;;;;;5013438;28;19921;-67
2021/06/22 04:43:58;;;;;;;;;;;25.60;53.90;;;;;;5015586;28;19924;-65
2021/06/22 04:46:23;;;;;;;;;;;25.60;55.10;;;;;;5018119;28;20616;-66
2021/06/22 04:48:49;;;;;;;;;;;25.50;54.40;;;;;;5021852;28;19919;-68
2021/06/22 04:51:14;;;;;;;;;;;25.60;55.50;;;;;;5023562;28;20428;-66
2021/06/22 04:53:40;;;;;;;;;;;25.60;55.30;;;;;;5023366;28;19917;-64
2021/06/22 04:56:05;;;;;;;;;;;25.60;54.50;;;;;;5016991;28;19922;-64
2021/06/22 04:58:31;;;;;;;;;;;25.60;53.90;;;;;;5018360;28;19917;-64
2021/06/22 05:00:59;;;;;;;;;;;25.50;53.90;;;;;;5018817;28;19921;-64
2021/06/22 05:03:25;;;;;;;;;;;25.50;54.00;;;;;;5038117;28;19913;-64
2021/06/22 05:05:50;;;;;;;;;;;25.50;53.80;;;;;;5012938;28;19967;-66
2021/06/22 05:08:16;;;;;;;;;;;25.40;53.30;;;;;;5012550;28;19961;-67
2021/06/22 05:10:41;;;;;;;;;;;25.40;53.50;;;;;;5016745;28;19925;-66
2021/06/22 05:13:07;;;;;;;;;;;25.40;53.60;;;;;;5013504;28;19924;-67
2021/06/22 05:15:32;;;;;;;;;;;25.30;54.30;;;;;;5020156;28;19917;-68
2021/06/22 05:17:57;;;;;;;;;;;25.30;53.30;;;;;;5025968;28;19931;-68
2021/06/22 05:20:23;;;;;;;;;;;25.40;53.60;;;;;;5017755;28;20355;-68
2021/06/22 05:22:48;;;;;;;;;;;25.30;54.90;;;;;;5023599;28;19913;-68
2021/06/22 05:25:14;;;;;;;;;;;25.40;54.60;;;;;;5020524;28;20914;-68
2021/06/22 05:27:39;;;;;;;;;;;25.40;54.20;;;;;;5017095;28;19916;-69
2021/06/22 05:30:05;;;;;;;;;;;25.40;54.30;;;;;;5024543;28;20579;-69
2021/06/22 05:32:30;;;;;;;;;;;25.40;55.60;;;;;;5023083;28;19913;-68
2021/06/22 05:34:56;;;;;;;;;;;25.30;55.40;;;;;;5027189;28;19913;-69
2021/06/22 05:37:23;;;;;;;;;;;25.40;54.70;;;;;;5015732;28;19918;-67
2021/06/22 05:39:49;;;;;;;;;;;25.40;54.40;;;;;;5012242;28;19971;-69
2021/06/22 05:42:14;;;;;;;;;;;25.40;54.10;;;;;;5008030;28;20327;-69
2021/06/22 05:44:40;;;;;;;;;;;25.40;54.40;;;;;;5014104;28;19941;-68
2021/06/22 05:47:05;;;;;;;;;;;25.40;54.30;;;;;;5015209;28;19913;-68
2021/06/22 05:49:31;;;;;;;;;;;25.50;54.30;;;;;;5024013;28;19920;-68
2021/06/22 05:51:56;;;;;;;;;;;25.50;54.10;;;;;;5006391;28;19928;-68
2021/06/22 05:54:22;;;;;;;;;;;25.50;53.70;;;;;;5015941;28;19910;-68
2021/06/22 05:56:47;;;;;;;;;;;25.50;53.70;;;;;;5016991;28;19923;-68
2021/06/22 05:59:13;;;;;;;;;;;25.40;53.80;;;;;;5022035;28;19927;-67
2021/06/22 06:01:38;;;;;;;;;;;25.40;54.00;;;;;;5022052;28;19916;-67
2021/06/22 06:04:04;;;;;;;;;;;25.40;54.10;;;;;;5018543;28;19927;-67
2021/06/22 06:06:29;;;;;;;;;;;25.40;54.30;;;;;;5018127;28;19913;-68
2021/06/22 06:08:55;;;;;;;;;;;25.40;53.80;;;;;;5018991;28;19921;-68
2021/06/22 06:11:20;;;;;;;;;;;25.40;53.80;;;;;;5040879;22;20374;-67
2021/06/22 06:13:46;;;;;;;;;;;25.40;53.80;;;;;;4982713;28;19925;-66
2021/06/22 06:16:11;;;;;;;;;;;25.30;53.70;;;;;;4974187;28;19917;-67
2021/06/22 06:18:37;;;;;;;;;;;25.30;53.60;;;;;;4975342;28;19914;-67
2021/06/22 06:21:02;;;;;;;;;;;25.30;53.70;;;;;;4983375;28;19924;-67
2021/06/22 06:23:42;;;;;;;;;;;25.30;53.70;;;;;;4983536;28;20296;-67
2021/06/22 06:26:09;;;;;;;;;;;25.30;53.80;;;;;;4972762;28;19914;-67
2021/06/22 06:28:44;;;;;;;;;;;25.30;53.80;;;;;;4974781;28;19925;-66
2021/06/22 06:31:09;;;;;;;;;;;25.30;53.80;;;;;;4975401;28;19933;-67
2021/06/22 06:33:35;;;;;;;;;;;25.20;53.80;;;;;;4976268;28;19918;-66
2021/06/22 06:36:00;;;;;;;;;;;25.20;54.00;;;;;;4976932;28;19924;-67
2021/06/22 06:38:25;;;;;;;;;;;25.20;54.10;;;;;;4967133;28;19949;-67
2021/06/22 06:40:51;;;;;;;;;;;25.30;54.00;;;;;;4970678;28;20348;-67
2021/06/22 06:43:17;;;;;;;;;;;25.30;53.80;;;;;;4974529;28;19918;-67
2021/06/22 06:45:42;;;;;;;;;;;25.20;54.10;;;;;;4967318;28;19916;-67
2021/06/22 06:48:08;;;;;;;;;;;25.20;54.10;;;;;;4978229;28;19910;-67
2021/06/22 06:50:34;;;;;;;;;;;25.20;54.10;;;;;;4973480;28;19914;-67
2021/06/22 06:52:59;;;;;;;;;;;25.20;53.90;;;;;;4975295;28;19918;-67
2021/06/22 06:55:25;;;;;;;;;;;25.20;53.90;;;;;;4966751;28;19921;-66
2021/06/22 06:57:54;;;;;;;;;;;25.20;54.00;;;;;;4966405;28;19924;-67
2021/06/22 07:00:20;;;;;;;;;;;25.10;54.00;;;;;;4973351;28;19921;-66
2021/06/22 07:02:45;;;;;;;;;;;25.10;54.00;;;;;;4974940;28;19914;-67
2021/06/22 07:05:11;;;;;;;;;;;25.20;54.20;;;;;;4973430;28;19946;-67
2021/06/22 07:07:36;;;;;;;;;;;25.10;54.10;;;;;;4966212;28;20035;-67
2021/06/22 07:10:02;;;;;;;;;;;25.10;54.20;;;;;;4972021;28;19922;-67
2021/06/22 07:12:27;;;;;;;;;;;25.10;54.20;;;;;;4966707;28;19925;-67
2021/06/22 07:14:53;;;;;;;;;;;25.10;54.30;;;;;;4984891;28;19964;-67
2021/06/22 07:17:18;;;;;;;;;;;25.10;54.20;;;;;;4967742;28;19977;-67
2021/06/22 07:19:44;;;;;;;;;;;25.00;54.20;;;;;;4968262;28;19993;-67
2021/06/22 07:22:09;;;;;;;;;;;25.10;54.30;;;;;;4978051;28;19941;-67
2021/06/22 07:24:35;;;;;;;;;;;25.00;54.10;;;;;;4972980;28;20380;-67
2021/06/22 07:27:00;;;;;;;;;;;25.00;54.10;;;;;;4972547;28;19933;-67
2021/06/22 07:29:25;;;;;;;;;;;25.00;54.20;;;;;;4979460;28;19910;-66
2021/06/22 07:31:51;;;;;;;;;;;25.00;54.10;;;;;;4985411;28;19914;-67
2021/06/22 07:34:16;;;;;;;;;;;25.00;54.10;;;;;;4977140;28;20722;-67
2021/06/22 07:36:42;;;;;;;;;;;25.00;54.10;;;;;;4978749;28;19921;-67
2021/06/22 07:39:07;;;;;;;;;;;25.00;54.20;;;;;;4966692;28;19921;-67
2021/06/22 07:41:34;;;;;;;;;;;25.00;54.30;;;;;;4961060;28;20563;-67
2021/06/22 07:43:59;;;;;;;;;;;24.90;54.40;;;;;;4966137;28;20009;-67
2021/06/22 07:46:24;;;;;;;;;;;25.00;54.50;;;;;;4973857;28;20373;-67
2021/06/22 07:48:50;;;;;;;;;;;25.00;54.70;;;;;;4976787;28;19925;-67
2021/06/22 07:51:15;;;;;;;;;;;25.00;54.70;;;;;;4977139;28;19910;-67
2021/06/22 07:53:41;;;;;;;;;;;25.00;54.90;;;;;;4975346;28;19953;-67
2021/06/22 07:56:06;;;;;;;;;;;24.90;54.80;;;;;;4977120;28;19925;-67
2021/06/22 07:58:32;;;;;;;;;;;24.90;54.60;;;;;;4969879;28;19941;-67
2021/06/22 08:00:58;;;;;;;;;;;25.00;54.80;;;;;;4973869;28;19930;-66
2021/06/22 08:03:24;;;;;;;;;;;24.90;54.90;;;;;;4973898;28;19910;-66
2021/06/22 08:05:50;;;;;;;;;;;24.90;54.90;;;;;;4981013;28;19960;-66
2021/06/22 08:08:17;;;;;;;;;;;24.90;54.90;;;;;;4966280;28;19977;-66
2021/06/22 08:10:43;;;;;;;;;;;24.90;55.00;;;;;;4971722;28;19968;-67
2021/06/22 08:13:08;;;;;;;;;;;24.90;55.10;;;;;;4977726;28;20012;-66
2021/06/22 08:15:34;;;;;;;;;;;24.90;55.00;;;;;;4973454;28;19917;-67
2021/06/22 08:18:00;;;;;;;;;;;24.90;54.70;;;;;;4972563;28;19921;-67
2021/06/22 08:20:25;;;;;;;;;;;24.90;54.80;;;;;;4976597;28;19918;-67
2021/06/22 08:22:54;;;;;;;;;;;24.90;54.90;;;;;;4969331;28;19910;-66
2021/06/22 08:25:20;;;;;;;;;;;24.90;55.00;;;;;;4966676;28;19961;-67
2021/06/22 08:27:45;;;;;;;;;;;24.80;54.80;;;;;;4972301;28;20479;-68
2021/06/22 08:30:11;;;;;;;;;;;24.90;54.80;;;;;;4954909;28;20005;-68
2021/06/22 08:32:36;;;;;;;;;;;24.80;54.80;;;;;;4966708;28;19957;-67
2021/06/22 08:35:02;;;;;;;;;;;24.80;54.80;;;;;;4976467;28;19913;-67
2021/06/22 08:37:27;;;;;;;;;;;24.80;54.80;;;;;;4982957;28;20423;-67
2021/06/22 08:39:53;;;;;;;;;;;24.80;55.00;;;;;;4969362;28;19914;-67
2021/06/22 08:42:18;;;;;;;;;;;24.80;54.90;;;;;;4980375;28;19918;-67
2021/06/22 08:44:45;;;;;;;;;;;24.70;54.80;;;;;;4973166;28;20339;-67
2021/06/22 08:47:11;;;;;;;;;;;24.80;55.00;;;;;;4967094;28;19976;-68
2021/06/22 08:49:37;;;;;;;;;;;24.80;55.30;;;;;;4976015;28;19914;-65
2021/06/22 08:52:02;;;;;;;;;;;24.80;55.40;;;;;;4981271;28;19914;-67
2021/06/22 08:54:28;;;;;;;;;;;24.80;55.40;;;;;;4981337;28;19918;-67
2021/06/22 08:56:55;;;;;;;;;;;24.80;55.60;;;;;;4986402;28;19913;-66
2021/06/22 08:59:21;;;;;;;;;;;24.90;56.30;;;;;;4972266;28;19914;-68
2021/06/22 09:01:46;;;;;;;;;;;24.80;55.70;;;;;;4978793;28;20411;-67
2021/06/22 09:04:12;;;;;;;;;;;24.70;55.60;;;;;;4988321;28;19910;-67
2021/06/22 09:06:38;;;;;;;;;;;24.80;55.60;;;;;;4978802;28;19914;-67
2021/06/22 09:09:05;;;;;;;;;;;24.80;55.60;;;;;;4977047;28;19997;-67
2021/06/22 09:11:30;;;;;;;;;;;24.80;56.10;;;;;;4974766;28;19926;-67
2021/06/22 09:13:59;;;;;;;;;;;24.80;55.40;;;;;;4985682;28;19918;-67
2021/06/22 09:16:25;;;;;;;;;;;24.80;55.10;;;;;;4981730;28;19920;-67
2021/06/22 09:18:50;;;;;;;;;;;24.80;55.10;;;;;;4986111;28;20003;-67
2021/06/22 09:21:18;;;;;;;;;;;24.80;55.20;;;;;;4973504;28;20030;-67
2021/06/22 09:23:43;;;;;;;;;;;24.80;55.50;;;;;;4971412;28;20464;-67
2021/06/22 09:26:10;;;;;;;;;;;24.70;55.60;;;;;;4975266;28;19942;-67
2021/06/22 09:28:35;;;;;;;;;;;24.70;55.60;;;;;;4985720;28;19914;-67
2021/06/22 09:31:01;;;;;;;;;;;24.80;55.70;;;;;;4966071;28;19929;-67
2021/06/22 09:33:31;;;;;;;;;;;24.80;55.30;;;;;;4974617;28;20304;-65
2021/06/22 09:36:08;;;;;;;;;;;24.70;55.10;;;;;;4983250;28;20415;-67
2021/06/22 09:38:38;;;;;;;;;;;24.70;55.10;;;;;;4979132;28;19926;-67
2021/06/22 09:41:07;;;;;;;;;;;24.70;55.40;;;;;;4957451;28;20005;-67
2021/06/22 09:43:42;;;;;;;;;;;24.70;55.60;;;;;;4982413;28;19925;-67
2021/06/22 09:46:08;;;;;;;;;;;24.70;55.40;;;;;;4965798;28;19965;-67
2021/06/22 09:48:42;;;;;;;;;;;24.70;55.20;;;;;;4981175;28;19958;-67
2021/06/22 09:51:07;;;;;;;;;;;24.70;55.10;;;;;;4982532;28;19926;-67
2021/06/22 09:53:33;;;;;;;;;;;24.60;55.40;;;;;;4973022;28;20006;-67
2021/06/22 09:56:00;;;;;;;;;;;24.60;55.50;;;;;;4985424;28;19925;-65
2021/06/22 09:58:42;;;;;;;;;;;24.60;55.40;;;;;;4973398;28;20153;-68
2021/06/22 10:01:23;;;;;;;;;;;24.70;55.50;;;;;;4968269;28;20122;-67
2021/06/22 10:03:48;;;;;;;;;;;24.60;55.50;;;;;;4964652;28;19918;-67
2021/06/22 10:06:14;;;;;;;;;;;24.70;55.60;;;;;;4977167;28;19922;-67
2021/06/22 10:08:53;;;;;;;;;;;24.70;55.70;;;;;;4975622;28;19917;-67
2021/06/22 10:11:34;;;;;;;;;;;24.60;55.80;;;;;;4975064;28;19926;-66
2021/06/22 10:14:00;;;;;;;;;;;24.60;55.80;;;;;;4968638;28;19924;-67
2021/06/22 10:16:26;;;;;;;;;;;24.70;55.80;;;;;;4978447;28;19996;-67
2021/06/22 10:18:52;;;;;;;;;;;24.70;55.60;;;;;;4980062;28;19928;-67
2021/06/22 10:21:17;;;;;;;;;;;24.70;55.40;;;;;;4975122;28;19957;-67
2021/06/22 10:23:43;;;;;;;;;;;24.60;55.30;;;;;;4982941;28;20492;-67
2021/06/22 10:26:08;;;;;;;;;;;24.60;55.10;;;;;;4977640;28;19925;-67
2021/06/22 10:28:34;;;;;;;;;;;24.60;55.00;;;;;;4974208;28;19961;-67
2021/06/22 10:30:59;;;;;;;;;;;24.60;55.00;;;;;;4969138;28;19918;-67
2021/06/22 10:33:25;;;;;;;;;;;24.60;55.10;;;;;;4974945;28;19925;-67
2021/06/22 10:35:50;;;;;;;;;;;24.60;55.30;;;;;;4974113;28;20528;-67
2021/06/22 10:38:16;;;;;;;;;;;24.60;55.30;;;;;;4976438;28;19953;-67
2021/06/22 10:40:41;;;;;;;;;;;24.50;55.10;;;;;;4973669;28;19918;-66
2021/06/22 10:43:07;;;;;;;;;;;24.50;55.50;;;;;;4951775;28;20178;-67
2021/06/22 10:45:32;;;;;;;;;;;24.50;55.60;;;;;;4981967;28;19914;-66
2021/06/22 10:47:59;;;;;;;;;;;24.50;55.70;;;;;;4977726;28;19944;-67
2021/06/22 10:50:25;;;;;;;;;;;24.60;55.70;;;;;;4972017;28;19937;-67
2021/06/22 10:52:52;;;;;;;;;;;24.60;55.90;;;;;;4970395;28;19913;-67
2021/06/22 10:55:20;;;;;;;;;;;24.50;55.80;;;;;;4974286;28;19915;-67
2021/06/22 10:58:01;;;;;;;;;;;24.50;55.80;;;;;;4969202;28;19914;-67
2021/06/22 11:00:28;;;;;;;;;;;24.50;55.80;;;;;;4967252;28;19922;-69
2021/06/22 11:03:03;;;;;;;;;;;24.50;55.60;;;;;;4968417;28;20297;-65
2021/06/22 11:05:29;;;;;;;;;;;24.50;55.50;;;;;;4973843;28;20034;-67
2021/06/22 11:08:16;;;;;;;;;;;24.50;55.70;;;;;;4974306;28;19928;-67
2021/06/22 11:11:02;;;;;;;;;;;24.50;55.90;;;;;;4977339;28;19913;-66
2021/06/22 11:13:31;;;;;;;;;;;24.50;56.00;;;;;;4974360;28;19922;-67
2021/06/22 11:15:56;;;;;;;;;;;24.50;56.00;;;;;;4974374;28;19918;-67
2021/06/22 11:18:22;;;;;;;;;;;24.50;55.90;;;;;;4972029;28;19917;-66
2021/06/22 11:20:53;;;;;;;;;;;24.50;55.80;;;;;;4983806;28;20415;-67
2021/06/22 11:23:22;;;;;;;;;;;24.50;55.70;;;;;;4979725;28;19918;-66
2021/06/22 11:25:47;;;;;;;;;;;24.50;55.50;;;;;;4955259;28;20384;-66
2021/06/22 11:28:13;;;;;;;;;;;24.50;55.50;;;;;;4973645;28;19946;-67
2021/06/22 11:30:50;;;;;;;;;;;24.50;55.40;;;;;;4977426;28;19953;-65
2021/06/22 11:33:28;;;;;;;;;;;24.50;55.30;;;;;;4977602;28;19922;-66
2021/06/22 11:36:12;;;;;;;;;;;24.50;55.40;;;;;;4973546;28;20624;-66
2021/06/22 11:38:38;;;;;;;;;;;24.50;55.00;;;;;;4975716;28;20634;-66
2021/06/22 11:41:16;;;;;;;;;;;24.50;54.90;;;;;;4970999;28;19980;-66
2021/06/22 11:44:00;;;;;;;;;;;24.50;54.90;;;;;;4970371;28;19977;-66
2021/06/22 11:46:26;;;;;;;;;;;24.50;55.00;;;;;;4978677;28;19989;-67
2021/06/22 11:48:55;;;;;;;;;;;24.50;55.10;;;;;;4981775;28;20006;-66
2021/06/22 11:51:40;;;;;;;;;;;24.40;55.10;;;;;;4964768;28;19973;-66
2021/06/22 11:54:05;;;;;;;;;;;24.40;55.30;;;;;;4971723;28;19925;-67
2021/06/22 11:56:31;;;;;;;;;;;24.40;55.60;;;;;;4967048;28;19914;-66
2021/06/22 11:58:56;;;;;;;;;;;24.40;55.80;;;;;;4973470;28;19984;-67
2021/06/22 12:01:23;;;;;;;;;;;24.40;55.90;;;;;;4972114;28;19920;-68
2021/06/22 12:03:52;;;;;;;;;;;24.50;56.10;;;;;;4978281;28;20335;-69
2021/06/22 12:06:17;;;;;;;;;;;24.50;55.90;;;;;;4982339;28;20381;-69
2021/06/22 12:08:43;;;;;;;;;;;24.40;55.60;;;;;;4952122;28;19918;-69
2021/06/22 12:11:08;;;;;;;;;;;24.50;55.70;;;;;;4965528;28;20333;-69
2021/06/22 12:13:40;;;;;;;;;;;24.50;55.80;;;;;;5028728;22;20329;-60
2021/06/22 12:16:13;;;;;;;;;;;24.50;55.90;;;;;;5048808;28;20012;-60
2021/06/22 12:18:38;;;;;;;;;;;24.50;55.90;;;;;;5047495;28;20513;-60
2021/06/22 12:21:04;;;;;;;;;;;24.50;55.80;;;;;;5044923;28;20137;-61
2021/06/22 12:23:30;;;;;;;;;;;24.50;55.70;;;;;;5031820;28;20645;-61
2021/06/22 12:25:55;;;;;;;;;;;24.60;55.70;;;;;;5061819;28;19940;-59
2021/06/22 12:28:24;;;;;;;;;;;24.50;55.80;;;;;;5038093;28;19989;-60
2021/06/22 12:30:56;;;;;;;;;;;24.50;55.50;;;;;;5057013;28;19920;-59
2021/06/22 12:33:23;;;;;;;;;;;24.50;55.50;;;;;;5049272;28;19995;-60
2021/06/22 12:35:49;;;;;;;;;;;24.50;55.50;;;;;;5056544;28;19912;-60
2021/06/22 12:38:15;;;;;;;;;;;24.50;55.50;;;;;;5050340;28;20401;-58
2021/06/22 12:40:41;;;;;;;;;;;24.40;55.40;;;;;;5041273;28;20020;-61
2021/06/22 12:43:06;;;;;;;;;;;24.40;55.40;;;;;;5042546;28;20023;-60
2021/06/22 12:45:32;;;;;;;;;;;24.40;55.70;;;;;;5047982;28;19924;-60
2021/06/22 12:47:58;;;;;;;;;;;24.40;55.50;;;;;;5048410;28;19920;-62
2021/06/22 12:50:26;;;;;;;;;;;24.40;55.30;;;;;;5032700;28;20184;-60
2021/06/22 12:52:52;;;;;;;;;;;24.40;55.40;;;;;;5061489;28;20368;-60
2021/06/22 12:55:35;;;;;;;;;;;24.30;55.50;;;;;;5058776;28;20262;-59
2021/06/22 12:58:00;;;;;;;;;;;24.40;55.60;;;;;;5044238;28;20304;-60
2021/06/22 13:00:35;;;;;;;;;;;24.40;55.60;;;;;;5061517;28;19927;-60
2021/06/22 13:03:27;;;;;;;;;;;24.40;55.70;;;;;;5050149;28;19916;-60
2021/06/22 13:05:53;;;;;;;;;;;24.40;55.40;;;;;;5044656;28;19956;-59
2021/06/22 13:08:19;;;;;;;;;;;24.30;55.60;;;;;;5058995;28;20258;-61
2021/06/22 13:10:45;;;;;;;;;;;24.30;55.70;;;;;;5060885;28;19916;-62
2021/06/22 13:13:11;;;;;;;;;;;24.30;55.70;;;;;;5044756;28;19924;-61
2021/06/22 13:15:37;;;;;;;;;;;24.30;55.80;;;;;;5053015;28;19946;-61
2021/06/22 13:18:03;;;;;;;;;;;24.30;55.80;;;;;;5048064;28;20149;-60
2021/06/22 13:20:31;;;;;;;;;;;24.30;55.70;;;;;;5042628;28;20639;-60
2021/06/22 13:23:03;;;;;;;;;;;24.30;55.60;;;;;;5056191;28;20089;-60
2021/06/22 13:25:29;;;;;;;;;;;24.30;55.60;;;;;;5044236;28;19944;-62
2021/06/22 13:27:56;;;;;;;;;;;24.40;55.90;;;;;;5055060;28;19913;-61
2021/06/22 13:30:24;;;;;;;;;;;24.40;55.80;;;;;;5046432;28;20366;-61
2021/06/22 13:32:50;;;;;;;;;;;24.40;55.80;;;;;;5064551;22;19923;-60
2021/06/22 13:35:22;;;;;;;;;;;24.30;55.80;;;;;;5062016;28;19978;-61
2021/06/22 13:38:11;;;;;;;;;;;24.30;55.70;;;;;;5058254;28;19916;-59
2021/06/22 13:40:55;;;;;;;;;;;24.20;55.70;;;;;;5047878;28;19917;-60
2021/06/22 13:43:24;;;;;;;;;;;24.30;55.50;;;;;;5058883;28;19982;-60
2021/06/22 13:45:51;;;;;;;;;;;24.30;55.30;;;;;;5059107;28;19916;-61
2021/06/22 13:48:19;;;;;;;;;;;24.30;55.20;;;;;;5058795;28;19928;-61
2021/06/22 13:50:45;;;;;;;;;;;24.30;55.40;;;;;;5059122;28;19993;-61
2021/06/22 13:53:21;;;;;;;;;;;24.30;55.30;;;;;;5057764;28;20049;-61
2021/06/22 13:55:46;;;;;;;;;;;24.30;55.20;;;;;;5057153;28;20668;-60
2021/06/22 13:58:17;;;;;;;;;;;24.30;55.20;;;;;;5059317;28;19927;-61
2021/06/22 14:00:43;;;;;;;;;;;24.30;55.40;;;;;;5056545;28;19920;-61
2021/06/22 14:03:08;;;;;;;;;;;24.30;55.60;;;;;;5058958;28;19922;-59
2021/06/22 14:05:35;;;;;;;;;;;24.30;55.60;;;;;;5056510;28;20007;-60
2021/06/22 14:08:01;;;;;;;;;;;24.30;55.70;;;;;;5058562;28;19970;-65
2021/06/22 14:10:27;;;;;;;;;;;24.30;55.50;;;;;;5057009;28;19921;-59
2021/06/22 14:12:53;;;;;;;;;;;24.30;55.50;;;;;;5056420;28;20004;-60
2021/06/22 14:15:18;;;;;;;;;;;24.30;55.40;;;;;;5055609;28;19930;-60